createdAt,value
2023-04-05T00:02:10.969Z,99.90
2023-04-05T00:04:38.796Z,99.90
2023-04-05T00:07:08.227Z,99.90
2023-04-05T00:09:34.984Z,99.90
2023-04-05T00:12:01.683Z,99.90
2023-04-05T00:14:28.325Z,99.90
2023-04-05T00:16:55.005Z,99.90
2023-04-05T00:19:23.102Z,99.90
2023-04-05T00:21:50.087Z,99.90
2023-04-05T00:24:16.707Z,99.90
2023-04-05T00:26:44.118Z,99.90
2023-04-05T00:29:10.980Z,99.90
2023-04-05T00:31:37.874Z,99.90
2023-04-05T00:34:08.855Z,99.90
2023-04-05T00:36:36.211Z,99.90
2023-04-05T00:39:03.189Z,99.90
2023-04-05T00:41:29.862Z,99.90
2023-04-05T00:43:59.802Z,99.90
2023-04-05T00:46:26.962Z,99.90
2023-04-05T00:48:53.712Z,99.90
2023-04-05T00:51:21.017Z,99.90
2023-04-05T00:53:48.153Z,99.90
2023-04-05T00:56:15.517Z,99.90
2023-04-05T00:58:42.504Z,99.90
2023-04-05T01:01:23.701Z,99.90
2023-04-05T01:03:56.099Z,99.90
2023-04-05T01:06:47.390Z,99.90
2023-04-05T01:09:41.360Z,99.90
2023-04-05T01:12:09.930Z,99.90
2023-04-05T01:14:51.207Z,99.90
2023-04-05T01:17:22.867Z,99.90
2023-04-05T01:19:53.288Z,99.90
2023-04-05T01:22:49.626Z,99.90
2023-04-05T01:25:32.725Z,99.90
2023-04-05T01:27:59.324Z,99.90
2023-04-05T01:30:35.196Z,99.90
2023-04-05T01:33:19.857Z,99.90
2023-04-05T01:35:54.508Z,99.90
2023-04-05T01:38:25.204Z,99.90
2023-04-05T01:40:53.705Z,99.90
2023-04-05T01:43:20.397Z,99.90
2023-04-05T01:45:47.162Z,99.90
2023-04-05T01:48:14.804Z,99.90
2023-04-05T01:50:41.905Z,99.90
2023-04-05T01:53:09.245Z,99.90
2023-04-05T01:55:36.128Z,99.90
2023-04-05T01:58:02.818Z,99.90
2023-04-05T02:00:29.510Z,99.90
2023-04-05T02:02:57.092Z,99.90
2023-04-05T02:05:23.795Z,99.90
2023-04-05T02:07:50.631Z,99.90
2023-04-05T02:10:18.222Z,99.90
2023-04-05T02:12:45.047Z,99.90
2023-04-05T02:15:12.629Z,99.90
2023-04-05T02:17:39.954Z,99.90
2023-04-05T02:20:12.569Z,99.90
2023-04-05T02:22:40.031Z,99.90
2023-04-05T02:25:11.021Z,99.90
2023-04-05T02:27:38.573Z,99.90
2023-04-05T02:30:05.910Z,99.90
2023-04-05T02:32:32.555Z,99.90
2023-04-05T02:34:59.227Z,99.90
2023-04-05T02:37:27.066Z,99.90
2023-04-05T02:39:54.426Z,99.90
2023-04-05T02:42:21.123Z,99.90
2023-04-05T02:44:51.184Z,99.90
2023-04-05T02:47:21.543Z,99.90
2023-04-05T02:49:53.596Z,99.90
2023-04-05T02:52:21.322Z,99.90
2023-04-05T02:54:49.910Z,99.90
2023-04-05T02:57:22.308Z,99.90
2023-04-05T02:59:59.113Z,99.90
2023-04-05T03:02:28.900Z,99.90
2023-04-05T03:04:56.383Z,99.90
2023-04-05T03:07:25.645Z,99.90
2023-04-05T03:09:53.803Z,99.90
2023-04-05T03:12:20.874Z,99.90
2023-04-05T03:15:06.757Z,99.90
2023-04-05T03:17:38.505Z,99.90
2023-04-05T03:20:07.143Z,99.90
2023-04-05T03:22:33.776Z,99.90
2023-04-05T03:25:01.877Z,99.90
2023-04-05T03:27:29.356Z,99.90
2023-04-05T03:30:16.300Z,99.90
2023-04-05T03:33:01.415Z,99.90
2023-04-05T03:35:36.799Z,99.90
2023-04-05T03:38:07.535Z,99.90
2023-04-05T03:40:36.462Z,99.90
2023-04-05T03:43:03.116Z,99.90
2023-04-05T03:45:30.020Z,99.90
2023-04-05T03:47:57.664Z,99.90
2023-04-05T03:50:24.873Z,99.90
2023-04-05T03:52:52.392Z,99.90
2023-04-05T03:55:19.420Z,99.90
2023-04-05T03:57:47.500Z,99.90
2023-04-05T04:00:36.623Z,99.90
2023-04-05T04:03:19.502Z,99.90
2023-04-05T04:05:49.297Z,99.90
2023-04-05T04:08:17.011Z,99.90
2023-04-05T04:10:43.578Z,99.90
2023-04-05T04:13:23.175Z,99.90
2023-04-05T04:16:00.856Z,99.90
2023-04-05T04:18:46.006Z,99.90
2023-04-05T04:21:35.819Z,99.90
2023-04-05T04:24:18.464Z,99.90
2023-04-05T04:26:50.162Z,99.90
2023-04-05T04:29:46.477Z,99.90
2023-04-05T04:32:50.955Z,99.90
2023-04-05T04:35:39.907Z,99.90
2023-04-05T04:38:29.961Z,99.90
2023-04-05T04:41:11.623Z,99.90
2023-04-05T04:44:02.722Z,99.90
2023-04-05T04:46:47.990Z,99.90
2023-04-05T04:49:33.670Z,99.90
2023-04-05T04:52:00.273Z,99.90
2023-04-05T04:54:28.701Z,99.90
2023-04-05T04:56:55.885Z,99.90
2023-04-05T04:59:22.479Z,99.90
2023-04-05T05:01:49.100Z,99.90
2023-04-05T05:04:15.806Z,99.90
2023-04-05T05:06:42.987Z,99.90
2023-04-05T05:09:09.634Z,99.90
2023-04-05T05:11:44.889Z,99.90
2023-04-05T05:14:12.967Z,99.90
2023-04-05T05:16:39.614Z,99.90
2023-04-05T05:19:06.278Z,99.90
2023-04-05T05:21:41.365Z,99.90
2023-04-05T05:24:10.017Z,99.90
2023-04-05T05:26:37.956Z,99.90
2023-04-05T05:29:04.506Z,99.90
2023-04-05T05:31:34.320Z,99.90
2023-04-05T05:34:00.985Z,99.90
2023-04-05T05:36:27.846Z,99.90
2023-04-05T05:38:54.434Z,99.90
2023-04-05T05:41:23.727Z,99.90
2023-04-05T05:43:50.393Z,99.90
2023-04-05T05:46:17.978Z,99.90
2023-04-05T05:48:45.420Z,99.90
2023-04-05T05:51:12.034Z,99.90
2023-04-05T05:53:39.197Z,99.90
2023-04-05T05:56:06.230Z,99.90
2023-04-05T05:58:32.806Z,99.90
2023-04-05T06:00:59.669Z,99.90
2023-04-05T06:03:26.395Z,99.90
2023-04-05T06:05:54.020Z,99.90
2023-04-05T06:08:20.593Z,99.90
2023-04-05T06:10:47.818Z,99.90
2023-04-05T06:13:14.439Z,99.90
2023-04-05T06:15:42.378Z,99.90
2023-04-05T06:18:08.997Z,99.90
2023-04-05T06:20:41.150Z,99.90
2023-04-05T06:23:08.025Z,99.90
2023-04-05T06:25:34.761Z,99.90
2023-04-05T06:28:04.178Z,99.90
2023-04-05T06:30:31.705Z,99.90
2023-04-05T06:32:58.856Z,99.90
2023-04-05T06:35:26.623Z,99.90
2023-04-05T06:37:53.602Z,99.90
2023-04-05T06:40:20.633Z,99.90
2023-04-05T06:42:47.275Z,99.90
2023-04-05T06:45:19.690Z,99.90
2023-04-05T06:47:46.670Z,99.90
2023-04-05T06:50:13.339Z,99.90
2023-04-05T06:52:39.957Z,99.90
2023-04-05T06:55:08.021Z,99.90
2023-04-05T06:57:35.116Z,99.90
2023-04-05T07:00:01.854Z,99.90
2023-04-05T07:02:28.489Z,99.90
2023-04-05T07:05:03.415Z,99.90
2023-04-05T07:07:30.092Z,99.90
2023-04-05T07:09:56.694Z,99.90
2023-04-05T07:12:23.348Z,99.90
2023-04-05T07:14:50.182Z,99.90
2023-04-05T07:17:16.904Z,99.90
2023-04-05T07:19:43.530Z,99.90
2023-04-05T07:22:10.187Z,99.90
2023-04-05T07:24:36.799Z,99.90
2023-04-05T07:27:04.072Z,99.90
2023-04-05T07:29:30.790Z,99.90
2023-04-05T07:31:57.534Z,99.90
2023-04-05T07:34:24.168Z,99.90
2023-04-05T07:36:50.781Z,99.90
2023-04-05T07:39:18.189Z,99.90
2023-04-05T07:41:44.799Z,99.90
2023-04-05T07:44:11.407Z,99.90
2023-04-05T07:46:39.246Z,99.90
2023-04-05T07:49:06.456Z,99.90
2023-04-05T07:51:36.126Z,99.90
2023-04-05T07:54:03.504Z,99.90
2023-04-05T07:56:30.638Z,99.90
2023-04-05T07:58:58.840Z,99.90
2023-04-05T08:01:28.285Z,99.90
2023-04-05T08:03:57.437Z,99.90
2023-04-05T08:06:24.614Z,99.90
2023-04-05T08:08:51.306Z,99.90
2023-04-05T08:11:17.945Z,99.90
2023-04-05T08:13:45.019Z,99.90
2023-04-05T08:16:11.784Z,99.90
2023-04-05T08:18:38.684Z,99.90
2023-04-05T08:21:05.729Z,99.90
2023-04-05T08:23:32.487Z,99.90
2023-04-05T08:26:04.764Z,99.90
2023-04-05T08:28:31.636Z,99.90
2023-04-05T08:30:58.337Z,99.90
2023-04-05T08:33:26.321Z,99.90
2023-04-05T08:35:53.310Z,99.90
2023-04-05T08:38:20.359Z,99.90
2023-04-05T08:40:47.686Z,99.90
2023-04-05T08:43:19.091Z,99.90
2023-04-05T08:45:52.418Z,99.90
2023-04-05T08:48:20.646Z,99.90
2023-04-05T08:50:51.595Z,99.90
2023-04-05T08:53:19.203Z,99.90
2023-04-05T08:55:51.160Z,99.90
2023-04-05T08:58:21.325Z,99.90
2023-04-05T09:00:48.445Z,99.90
2023-04-05T09:03:18.818Z,99.90
2023-04-05T09:05:51.325Z,99.90
2023-04-05T09:08:18.276Z,99.90
2023-04-05T09:10:45.386Z,99.90
2023-04-05T09:13:12.076Z,99.90
2023-04-05T09:15:40.210Z,99.90
2023-04-05T09:18:15.519Z,99.90
2023-04-05T09:20:50.501Z,99.90
2023-04-05T09:23:17.206Z,99.90
2023-04-05T09:25:43.855Z,99.90
2023-04-05T09:28:10.810Z,99.90
2023-04-05T09:30:38.049Z,99.90
2023-04-05T09:33:08.723Z,99.90
2023-04-05T09:35:36.919Z,99.90
2023-04-05T09:38:07.637Z,99.90
2023-04-05T09:40:45.588Z,99.90
2023-04-05T09:43:35.850Z,99.90
2023-04-05T09:46:02.526Z,99.90
2023-04-05T09:48:48.739Z,99.90
2023-04-05T09:51:16.620Z,99.90
2023-04-05T09:54:09.603Z,99.90
2023-04-05T09:56:38.483Z,99.90
2023-04-05T09:59:12.431Z,99.90
2023-04-05T10:01:43.347Z,99.90
2023-04-05T10:04:10.413Z,99.90
2023-04-05T10:06:37.958Z,99.90
2023-04-05T10:09:06.266Z,99.90
2023-04-05T10:11:34.183Z,99.90
2023-04-05T10:14:03.891Z,99.90
2023-04-05T10:16:36.598Z,99.90
2023-04-05T10:19:49.843Z,99.90
2023-04-05T10:22:24.936Z,99.90
2023-04-05T10:25:03.409Z,99.90
2023-04-05T10:27:41.803Z,99.90
2023-04-05T10:30:09.660Z,99.90
2023-04-05T10:33:07.209Z,99.90
2023-04-05T10:35:33.864Z,99.90
2023-04-05T10:38:17.013Z,99.90
2023-04-05T10:40:48.389Z,99.90
2023-04-05T10:43:23.048Z,99.90
2023-04-05T10:45:53.488Z,99.90
2023-04-05T10:48:44.331Z,99.90
2023-04-05T10:51:12.452Z,99.90
2023-04-05T10:53:40.752Z,99.90
2023-04-05T10:56:08.656Z,99.90
2023-04-05T10:58:36.941Z,99.90
2023-04-05T11:01:04.636Z,99.90
2023-04-05T11:03:48.308Z,99.90
2023-04-05T11:06:21.340Z,99.90
2023-04-05T11:08:50.194Z,99.90
2023-04-05T11:11:18.594Z,99.90
2023-04-05T11:13:55.257Z,99.90
2023-04-05T11:16:23.225Z,99.90
2023-04-05T11:18:51.927Z,99.90
2023-04-05T11:21:25.757Z,99.90
2023-04-05T11:24:11.735Z,99.90
2023-04-05T11:26:44.206Z,99.90
2023-04-05T11:29:11.420Z,99.90
2023-04-05T11:31:59.467Z,99.90
2023-04-05T11:34:26.388Z,99.90
2023-04-05T11:36:53.139Z,99.90
2023-04-05T11:39:20.958Z,99.90
2023-04-05T11:41:53.151Z,99.90
2023-04-05T11:44:19.883Z,99.90
2023-04-05T11:46:46.739Z,99.90
2023-04-05T11:49:14.067Z,99.90
2023-04-05T11:51:42.713Z,99.90
2023-04-05T11:54:10.208Z,99.90
2023-04-05T11:56:37.618Z,99.90
2023-04-05T11:59:04.295Z,99.90
2023-04-05T12:01:31.246Z,99.90
2023-04-05T12:03:58.031Z,99.90
2023-04-05T12:06:26.286Z,99.90
2023-04-05T12:08:55.869Z,99.90
2023-04-05T12:11:27.330Z,99.90
2023-04-05T12:13:55.994Z,99.90
2023-04-05T12:16:22.688Z,99.90
2023-04-05T12:18:57.727Z,99.90
2023-04-05T12:21:26.346Z,99.90
2023-04-05T12:23:53.946Z,99.90
2023-04-05T12:26:23.405Z,99.90
2023-04-05T12:28:51.813Z,99.90
2023-04-05T12:31:18.618Z,99.90
2023-04-05T12:33:45.331Z,99.90
2023-04-05T12:36:14.855Z,99.90
2023-04-05T12:38:41.515Z,99.90
2023-04-05T12:41:08.316Z,99.90
2023-04-05T12:43:42.167Z,99.90
2023-04-05T12:46:16.430Z,99.90
2023-04-05T12:48:43.228Z,99.90
2023-04-05T12:51:16.909Z,99.90
2023-04-05T12:53:48.218Z,99.90
2023-04-05T12:56:16.400Z,99.90
2023-04-05T12:58:43.193Z,99.90
2023-04-05T13:01:10.658Z,99.90
2023-04-05T13:03:37.543Z,99.90
2023-04-05T13:06:04.280Z,99.90
2023-04-05T13:08:30.988Z,99.90
2023-04-05T13:10:58.373Z,99.90
2023-04-05T13:13:25.248Z,99.90
2023-04-05T13:15:52.274Z,99.90
2023-04-05T13:18:19.405Z,99.90
2023-04-05T13:20:46.538Z,99.90
2023-04-05T13:23:13.589Z,99.90
2023-04-05T13:25:42.101Z,99.90
2023-04-05T13:28:09.530Z,99.90
2023-04-05T13:30:36.368Z,99.90
2023-04-05T13:33:04.550Z,99.90
2023-04-05T13:35:31.895Z,98.00
2023-04-05T13:37:59.012Z,99.60
2023-04-05T13:40:26.762Z,99.60
2023-04-05T13:42:53.355Z,99.30
2023-04-05T13:45:19.996Z,99.90
2023-04-05T13:47:46.612Z,99.90
2023-04-05T13:50:13.280Z,98.20
2023-04-05T13:52:40.041Z,97.50
2023-04-05T13:55:07.041Z,99.90
2023-04-05T13:57:33.678Z,99.90
2023-04-05T14:00:00.654Z,99.90
2023-04-05T14:02:28.218Z,99.90
2023-04-05T14:04:55.247Z,97.90
2023-04-05T14:07:22.527Z,99.30
2023-04-05T14:09:49.166Z,95.20
2023-04-05T14:12:15.898Z,97.30
2023-04-05T14:14:42.564Z,96.00
2023-04-05T14:17:11.456Z,95.00
2023-04-05T14:19:39.205Z,94.20
2023-04-05T14:22:05.980Z,97.40
2023-04-05T14:24:32.628Z,95.20
2023-04-05T14:26:59.362Z,95.80
2023-04-05T14:29:26.749Z,95.70
2023-04-05T14:31:55.625Z,95.50
2023-04-05T14:34:22.396Z,96.10
2023-04-05T14:36:49.566Z,96.40
2023-04-05T14:39:16.200Z,95.30
2023-04-05T14:41:43.956Z,94.80
2023-04-05T14:44:11.599Z,94.70
2023-04-05T14:46:38.291Z,96.90
2023-04-05T14:49:04.873Z,95.40
2023-04-05T14:51:32.023Z,94.20
2023-04-05T14:53:58.655Z,96.90
2023-04-05T14:56:26.205Z,97.10
2023-04-05T14:58:52.955Z,99.60
2023-04-05T15:01:19.731Z,96.30
2023-04-05T15:03:50.935Z,97.50
2023-04-05T15:06:18.672Z,99.30
2023-04-05T15:08:45.345Z,99.90
2023-04-05T15:11:12.373Z,98.90
2023-04-05T15:13:39.019Z,99.90
2023-04-05T15:16:06.091Z,99.10
2023-04-05T15:18:32.773Z,99.90
2023-04-05T15:20:59.971Z,99.60
2023-04-05T15:23:26.668Z,99.90
2023-04-05T15:25:53.299Z,99.90
2023-04-05T15:28:20.018Z,99.90
2023-04-05T15:30:46.718Z,99.30
2023-04-05T15:33:13.580Z,97.80
2023-04-05T15:35:40.330Z,98.30
2023-04-05T15:38:10.125Z,99.90
2023-04-05T15:40:36.942Z,99.70
2023-04-05T15:43:03.522Z,99.70
2023-04-05T15:45:30.971Z,99.90
2023-04-05T15:47:57.852Z,99.90
2023-04-05T15:50:24.725Z,99.90
2023-04-05T15:52:51.340Z,99.90
2023-04-05T15:55:18.298Z,99.90
2023-04-05T15:57:44.993Z,99.90
2023-04-05T16:00:12.528Z,99.90
2023-04-05T16:02:39.384Z,99.90
2023-04-05T16:05:06.466Z,98.90
2023-04-05T16:07:33.214Z,99.70
2023-04-05T16:09:59.878Z,98.40
2023-04-05T16:12:27.236Z,99.60
2023-04-05T16:14:53.914Z,98.20
2023-04-05T16:17:20.599Z,99.90
2023-04-05T16:19:47.290Z,99.40
2023-04-05T16:22:14.065Z,98.70
2023-04-05T16:24:40.690Z,98.20
2023-04-05T16:27:07.433Z,98.50
2023-04-05T16:29:34.042Z,99.10
2023-04-05T16:32:00.854Z,98.60
2023-04-05T16:34:31.011Z,99.10
2023-04-05T16:36:57.702Z,98.60
2023-04-05T16:39:24.436Z,97.80
2023-04-05T16:41:51.118Z,98.80
2023-04-05T16:44:17.766Z,99.10
2023-04-05T16:46:45.977Z,97.10
2023-04-05T16:49:12.986Z,96.70
2023-04-05T16:51:39.638Z,97.50
2023-04-05T16:54:06.226Z,98.70
2023-04-05T16:56:32.946Z,98.50
2023-04-05T16:58:59.712Z,98.20
2023-04-05T17:01:27.482Z,97.60
2023-04-05T17:03:54.138Z,96.40
2023-04-05T17:06:20.790Z,97.80
2023-04-05T17:08:47.477Z,96.70
2023-04-05T17:11:14.177Z,98.80
2023-04-05T17:13:41.843Z,99.90
2023-04-05T17:16:08.571Z,98.20
2023-04-05T17:18:35.442Z,97.50
2023-04-05T17:21:02.045Z,98.20
2023-04-05T17:23:28.765Z,96.80
2023-04-05T17:25:55.378Z,97.70
2023-04-05T17:28:21.988Z,98.00
2023-04-05T17:30:48.633Z,97.80
2023-04-05T17:33:15.629Z,98.10
2023-04-05T17:35:42.873Z,98.50
2023-04-05T17:38:10.654Z,99.70
2023-04-05T17:40:37.215Z,99.90
2023-04-05T17:43:03.907Z,99.90
2023-04-05T17:45:30.519Z,99.90
2023-04-05T17:47:57.273Z,99.90
2023-04-05T17:50:25.005Z,99.90
2023-04-05T17:52:51.629Z,99.90
2023-04-05T17:55:18.251Z,99.90
2023-04-05T17:57:44.826Z,99.90
2023-04-05T18:00:11.816Z,99.90
2023-04-05T18:02:40.690Z,99.90
2023-04-05T18:05:07.844Z,99.90
2023-04-05T18:07:37.860Z,99.90
2023-04-05T18:10:05.450Z,99.90
2023-04-05T18:12:32.740Z,99.90
2023-04-05T18:14:59.552Z,99.90
2023-04-05T18:17:26.384Z,99.90
2023-04-05T18:19:53.420Z,99.90
2023-04-05T18:22:20.216Z,99.90
2023-04-05T18:24:49.686Z,99.90
2023-04-05T18:27:16.216Z,99.90
2023-04-05T18:29:44.107Z,99.90
2023-04-05T18:32:10.739Z,99.90
2023-04-05T18:34:37.419Z,99.90
2023-04-05T18:37:04.303Z,99.90
2023-04-05T18:39:31.380Z,99.90
2023-04-05T18:41:58.207Z,99.90
2023-04-05T18:44:25.180Z,99.90
2023-04-05T18:46:51.790Z,99.90
2023-04-05T18:49:19.055Z,99.90
2023-04-05T18:51:48.578Z,99.90
2023-04-05T18:54:18.149Z,99.90
2023-04-05T18:56:45.554Z,99.90
2023-04-05T18:59:12.636Z,99.90
2023-04-05T19:01:39.364Z,99.90
2023-04-05T19:04:06.564Z,99.90
2023-04-05T19:06:34.623Z,99.90
2023-04-05T19:09:01.581Z,99.90
2023-04-05T19:11:28.307Z,99.90
2023-04-05T19:13:55.335Z,99.90
2023-04-05T19:16:21.992Z,99.90
2023-04-05T19:18:48.624Z,99.90
2023-04-05T19:21:15.313Z,99.90
2023-04-05T19:23:42.024Z,99.90
2023-04-05T19:26:08.684Z,99.90
2023-04-05T19:28:35.670Z,99.90
2023-04-05T19:31:02.399Z,99.90
2023-04-05T19:33:31.526Z,99.90
2023-04-05T19:35:58.651Z,99.90
2023-04-05T19:38:25.589Z,99.90
2023-04-05T19:40:52.849Z,99.90
2023-04-05T19:43:19.479Z,99.90
2023-04-05T19:45:48.425Z,99.90
2023-04-05T19:48:39.256Z,99.90
2023-04-05T19:51:07.826Z,99.90
2023-04-05T19:54:00.797Z,99.90
2023-04-05T19:56:34.609Z,99.90
2023-04-05T19:59:29.494Z,99.90
2023-04-05T20:01:58.309Z,99.90
2023-04-05T20:04:26.290Z,99.90
2023-04-05T20:06:55.160Z,99.90
2023-04-05T20:09:23.849Z,99.90
2023-04-05T20:12:02.394Z,99.90
2023-04-05T20:14:33.052Z,99.90
2023-04-05T20:16:59.869Z,99.90
2023-04-05T20:19:31.267Z,99.90
2023-04-05T20:22:02.586Z,99.90
2023-04-05T20:24:29.530Z,99.90
2023-04-05T20:26:56.857Z,99.90
2023-04-05T20:29:32.250Z,99.90
2023-04-05T20:31:59.198Z,99.90
2023-04-05T20:34:31.652Z,99.90
2023-04-05T20:37:03.110Z,99.90
2023-04-05T20:39:31.312Z,99.90
2023-04-05T20:41:59.573Z,99.90
2023-04-05T20:44:26.874Z,99.90
2023-04-05T20:46:56.036Z,99.90
2023-04-05T20:49:25.388Z,99.90
2023-04-05T20:51:54.630Z,99.90
2023-04-05T20:54:21.799Z,99.90
2023-04-05T20:56:48.552Z,99.90
2023-04-05T20:59:15.641Z,99.90
2023-04-05T21:01:43.076Z,99.90
2023-04-05T21:04:10.157Z,99.90
2023-04-05T21:06:37.381Z,99.90
2023-04-05T21:09:04.540Z,99.90
2023-04-05T21:11:32.239Z,99.90
2023-04-05T21:13:58.933Z,99.90
2023-04-05T21:16:25.664Z,99.90
2023-04-05T21:18:52.387Z,99.90
2023-04-05T21:21:19.091Z,99.90
2023-04-05T21:23:45.926Z,99.90
2023-04-05T21:26:12.575Z,99.90
2023-04-05T21:28:39.223Z,99.90
2023-04-05T21:31:05.884Z,99.90
2023-04-05T21:33:32.654Z,99.90
2023-04-05T21:35:59.360Z,99.90
2023-04-05T21:38:25.978Z,99.90
2023-04-05T21:40:52.640Z,99.90
2023-04-05T21:43:19.266Z,99.90
2023-04-05T21:45:46.564Z,99.90
2023-04-05T21:48:13.203Z,99.90
2023-04-05T21:50:39.882Z,99.90
2023-04-05T21:53:07.417Z,99.90
2023-04-05T21:55:34.119Z,99.90
2023-04-05T21:58:00.927Z,99.90
2023-04-05T22:00:28.223Z,99.90
2023-04-05T22:02:54.998Z,99.90
2023-04-05T22:05:33.997Z,99.90
2023-04-05T22:08:05.560Z,99.90
2023-04-05T22:10:32.717Z,99.90
2023-04-05T22:12:59.358Z,99.90
2023-04-05T22:15:25.976Z,99.90
2023-04-05T22:17:52.756Z,99.90
2023-04-05T22:20:19.422Z,99.90
2023-04-05T22:22:46.068Z,99.90
2023-04-05T22:25:12.790Z,99.90
2023-04-05T22:27:39.510Z,99.90
2023-04-05T22:30:08.083Z,99.90
2023-04-05T22:32:35.442Z,99.90
2023-04-05T22:35:02.169Z,99.90
2023-04-05T22:37:35.123Z,99.90
2023-04-05T22:40:02.385Z,99.90
2023-04-05T22:42:29.007Z,99.90
2023-04-05T22:44:55.613Z,99.90
2023-04-05T22:47:22.338Z,99.90
2023-04-05T22:49:49.738Z,99.90
2023-04-05T22:52:16.609Z,99.90
2023-04-05T22:54:43.209Z,99.90
2023-04-05T22:57:11.527Z,99.90
2023-04-05T22:59:38.708Z,99.90
2023-04-05T23:02:05.464Z,99.90
2023-04-05T23:04:32.285Z,99.90
2023-04-05T23:06:58.967Z,99.90
2023-04-05T23:09:25.667Z,99.90
2023-04-05T23:11:52.369Z,99.90
2023-04-05T23:14:19.058Z,99.90
2023-04-05T23:16:45.760Z,99.90
2023-04-05T23:19:12.464Z,99.90
2023-04-05T23:21:41.649Z,99.90
2023-04-05T23:24:08.461Z,99.90
2023-04-05T23:26:35.139Z,99.90
2023-04-05T23:29:01.780Z,99.90
2023-04-05T23:31:29.095Z,99.90
2023-04-05T23:33:56.069Z,99.90
2023-04-05T23:36:22.763Z,99.90
2023-04-05T23:38:49.507Z,99.90
2023-04-05T23:41:16.126Z,99.90
2023-04-05T23:43:42.757Z,99.90
2023-04-05T23:46:09.437Z,99.90
2023-04-05T23:49:00.288Z,99.90
2023-04-05T23:51:27.048Z,99.90
2023-04-05T23:53:54.123Z,99.90
2023-04-05T23:56:21.257Z,99.90
2023-04-05T23:58:47.906Z,99.90
